sensor_id;sensor_type;location;lat;lon;timestamp;P1;durP1;ratioP1;P2;durP2;ratioP2
5819;SDS011;2936;47.348;9.640;2022-07-22T00:00:12;16.27;;;14.53;;
5819;SDS011;2936;47.348;9.640;2022-07-22T00:02:42;17.33;;;14.50;;
5819;SDS011;2936;47.348;9.640;2022-07-22T00:05:09;18.20;;;15.40;;
5819;SDS011;2936;47.348;9.640;2022-07-22T00:07:37;16.40;;;14.80;;
5819;SDS011;2936;47.348;9.640;2022-07-22T00:10:05;20.63;;;15.27;;
5819;SDS011;2936;47.348;9.640;2022-07-22T00:12:32;17.00;;;15.17;;
5819;SDS011;2936;47.348;9.640;2022-07-22T00:15:00;17.93;;;15.30;;
5819;SDS011;2936;47.348;9.640;2022-07-22T00:17:27;16.90;;;15.10;;
5819;SDS011;2936;47.348;9.640;2022-07-22T00:19:56;17.13;;;15.30;;
5819;SDS011;2936;47.348;9.640;2022-07-22T00:22:23;18.00;;;16.10;;
5819;SDS011;2936;47.348;9.640;2022-07-22T00:24:51;25.03;;;16.27;;
5819;SDS011;2936;47.348;9.640;2022-07-22T00:27:18;18.40;;;16.40;;
5819;SDS011;2936;47.348;9.640;2022-07-22T00:29:46;17.70;;;15.90;;
5819;SDS011;2936;47.348;9.640;2022-07-22T00:32:13;24.73;;;15.60;;
5819;SDS011;2936;47.348;9.640;2022-07-22T00:34:40;17.10;;;15.30;;
5819;SDS011;2936;47.348;9.640;2022-07-22T00:37:09;24.67;;;14.80;;
5819;SDS011;2936;47.348;9.640;2022-07-22T00:39:37;16.90;;;14.63;;
5819;SDS011;2936;47.348;9.640;2022-07-22T00:42:04;17.50;;;14.00;;
5819;SDS011;2936;47.348;9.640;2022-07-22T00:44:32;17.73;;;14.73;;
5819;SDS011;2936;47.348;9.640;2022-07-22T00:46:59;20.70;;;15.37;;
5819;SDS011;2936;47.348;9.640;2022-07-22T00:49:26;16.70;;;14.83;;
5819;SDS011;2936;47.348;9.640;2022-07-22T00:51:54;17.97;;;14.90;;
5819;SDS011;2936;47.348;9.640;2022-07-22T00:54:23;20.20;;;15.10;;
5819;SDS011;2936;47.348;9.640;2022-07-22T00:56:51;22.50;;;16.17;;
5819;SDS011;2936;47.348;9.640;2022-07-22T00:59:19;19.97;;;16.10;;
5819;SDS011;2936;47.348;9.640;2022-07-22T01:01:47;19.53;;;16.97;;
5819;SDS011;2936;47.348;9.640;2022-07-22T01:04:16;19.63;;;17.60;;
5819;SDS011;2936;47.348;9.640;2022-07-22T01:06:43;21.67;;;15.83;;
5819;SDS011;2936;47.348;9.640;2022-07-22T01:09:11;19.93;;;16.53;;
5819;SDS011;2936;47.348;9.640;2022-07-22T01:11:40;21.30;;;16.20;;
5819;SDS011;2936;47.348;9.640;2022-07-22T01:14:08;17.37;;;15.60;;
5819;SDS011;2936;47.348;9.640;2022-07-22T01:16:36;19.00;;;15.90;;
5819;SDS011;2936;47.348;9.640;2022-07-22T01:19:03;17.33;;;15.50;;
5819;SDS011;2936;47.348;9.640;2022-07-22T01:21:32;19.00;;;15.40;;
5819;SDS011;2936;47.348;9.640;2022-07-22T01:24:00;19.43;;;15.27;;
5819;SDS011;2936;47.348;9.640;2022-07-22T01:26:27;17.80;;;16.00;;
5819;SDS011;2936;47.348;9.640;2022-07-22T01:28:55;20.20;;;15.90;;
5819;SDS011;2936;47.348;9.640;2022-07-22T01:31:22;16.67;;;15.07;;
5819;SDS011;2936;47.348;9.640;2022-07-22T01:33:50;21.30;;;15.57;;
5819;SDS011;2936;47.348;9.640;2022-07-22T01:36:17;17.60;;;15.80;;
5819;SDS011;2936;47.348;9.640;2022-07-22T01:38:46;19.07;;;15.27;;
5819;SDS011;2936;47.348;9.640;2022-07-22T01:41:14;16.10;;;14.40;;
5819;SDS011;2936;47.348;9.640;2022-07-22T01:43:41;18.97;;;15.80;;
5819;SDS011;2936;47.348;9.640;2022-07-22T01:46:09;17.50;;;15.70;;
5819;SDS011;2936;47.348;9.640;2022-07-22T01:48:36;18.00;;;14.93;;
5819;SDS011;2936;47.348;9.640;2022-07-22T01:51:04;18.83;;;14.90;;
5819;SDS011;2936;47.348;9.640;2022-07-22T01:53:31;20.80;;;15.20;;
5819;SDS011;2936;47.348;9.640;2022-07-22T01:56:00;17.40;;;14.43;;
5819;SDS011;2936;47.348;9.640;2022-07-22T01:58:28;19.17;;;16.00;;
5819;SDS011;2936;47.348;9.640;2022-07-22T02:00:55;19.10;;;15.30;;
5819;SDS011;2936;47.348;9.640;2022-07-22T02:03:23;16.13;;;14.53;;
5819;SDS011;2936;47.348;9.640;2022-07-22T02:05:50;19.00;;;15.10;;
5819;SDS011;2936;47.348;9.640;2022-07-22T02:08:17;16.87;;;15.07;;
5819;SDS011;2936;47.348;9.640;2022-07-22T02:10:45;19.90;;;15.40;;
5819;SDS011;2936;47.348;9.640;2022-07-22T02:13:14;20.40;;;16.13;;
5819;SDS011;2936;47.348;9.640;2022-07-22T02:15:41;16.10;;;14.60;;
5819;SDS011;2936;47.348;9.640;2022-07-22T02:18:09;19.13;;;15.43;;
5819;SDS011;2936;47.348;9.640;2022-07-22T02:20:37;16.33;;;14.50;;
5819;SDS011;2936;47.348;9.640;2022-07-22T02:23:04;20.00;;;15.20;;
5819;SDS011;2936;47.348;9.640;2022-07-22T02:25:32;18.97;;;15.77;;
5819;SDS011;2936;47.348;9.640;2022-07-22T02:28:00;20.70;;;15.77;;
5819;SDS011;2936;47.348;9.640;2022-07-22T02:30:29;25.33;;;16.60;;
5819;SDS011;2936;47.348;9.640;2022-07-22T02:32:57;18.13;;;16.20;;
5819;SDS011;2936;47.348;9.640;2022-07-22T02:35:25;21.27;;;16.27;;
5819;SDS011;2936;47.348;9.640;2022-07-22T02:37:52;19.27;;;16.00;;
5819;SDS011;2936;47.348;9.640;2022-07-22T02:40:19;16.57;;;14.77;;
5819;SDS011;2936;47.348;9.640;2022-07-22T02:42:47;16.63;;;14.87;;
5819;SDS011;2936;47.348;9.640;2022-07-22T02:45:14;17.60;;;15.70;;
5819;SDS011;2936;47.348;9.640;2022-07-22T02:47:47;16.50;;;14.83;;
5819;SDS011;2936;47.348;9.640;2022-07-22T02:50:14;17.13;;;14.77;;
5819;SDS011;2936;47.348;9.640;2022-07-22T02:52:42;16.97;;;15.17;;
5819;SDS011;2936;47.348;9.640;2022-07-22T02:55:09;17.23;;;14.90;;
5819;SDS011;2936;47.348;9.640;2022-07-22T02:57:37;20.00;;;16.70;;
5819;SDS011;2936;47.348;9.640;2022-07-22T03:00:04;20.80;;;16.07;;
5819;SDS011;2936;47.348;9.640;2022-07-22T03:02:33;19.50;;;16.37;;
5819;SDS011;2936;47.348;9.640;2022-07-22T03:05:02;18.60;;;16.03;;
5819;SDS011;2936;47.348;9.640;2022-07-22T03:07:29;19.77;;;16.60;;
5819;SDS011;2936;47.348;9.640;2022-07-22T03:09:57;19.63;;;15.23;;
5819;SDS011;2936;47.348;9.640;2022-07-22T03:12:24;18.33;;;15.80;;
5819;SDS011;2936;47.348;9.640;2022-07-22T03:14:51;17.53;;;15.77;;
5819;SDS011;2936;47.348;9.640;2022-07-22T03:17:19;20.90;;;15.53;;
5819;SDS011;2936;47.348;9.640;2022-07-22T03:19:46;18.63;;;16.33;;
5819;SDS011;2936;47.348;9.640;2022-07-22T03:22:15;22.40;;;16.83;;
5819;SDS011;2936;47.348;9.640;2022-07-22T03:24:42;18.33;;;15.40;;
5819;SDS011;2936;47.348;9.640;2022-07-22T03:27:10;19.67;;;15.30;;
5819;SDS011;2936;47.348;9.640;2022-07-22T03:29:37;20.40;;;15.97;;
5819;SDS011;2936;47.348;9.640;2022-07-22T03:32:05;17.00;;;15.30;;
5819;SDS011;2936;47.348;9.640;2022-07-22T03:34:32;20.90;;;15.50;;
5819;SDS011;2936;47.348;9.640;2022-07-22T03:36:59;18.27;;;16.27;;
5819;SDS011;2936;47.348;9.640;2022-07-22T03:39:28;18.40;;;15.23;;
5819;SDS011;2936;47.348;9.640;2022-07-22T03:41:56;18.07;;;15.40;;
5819;SDS011;2936;47.348;9.640;2022-07-22T03:44:23;19.10;;;15.80;;
5819;SDS011;2936;47.348;9.640;2022-07-22T03:46:50;20.80;;;15.70;;
5819;SDS011;2936;47.348;9.640;2022-07-22T03:49:18;18.73;;;16.00;;
5819;SDS011;2936;47.348;9.640;2022-07-22T03:51:45;21.43;;;16.80;;
5819;SDS011;2936;47.348;9.640;2022-07-22T03:54:12;17.87;;;16.07;;
5819;SDS011;2936;47.348;9.640;2022-07-22T03:56:41;22.17;;;15.90;;
5819;SDS011;2936;47.348;9.640;2022-07-22T03:59:09;18.40;;;15.77;;
5819;SDS011;2936;47.348;9.640;2022-07-22T04:01:36;16.57;;;14.73;;
5819;SDS011;2936;47.348;9.640;2022-07-22T04:04:03;19.37;;;16.90;;
5819;SDS011;2936;47.348;9.640;2022-07-22T04:06:31;17.03;;;15.23;;
5819;SDS011;2936;47.348;9.640;2022-07-22T04:08:58;21.80;;;15.10;;
5819;SDS011;2936;47.348;9.640;2022-07-22T04:11:26;17.13;;;15.27;;
5819;SDS011;2936;47.348;9.640;2022-07-22T04:13:54;20.00;;;13.97;;
5819;SDS011;2936;47.348;9.640;2022-07-22T04:16:22;22.13;;;17.17;;
5819;SDS011;2936;47.348;9.640;2022-07-22T04:18:49;19.87;;;17.70;;
5819;SDS011;2936;47.348;9.640;2022-07-22T04:21:17;27.13;;;18.70;;
5819;SDS011;2936;47.348;9.640;2022-07-22T04:23:44;23.80;;;17.60;;
5819;SDS011;2936;47.348;9.640;2022-07-22T04:26:11;21.40;;;17.70;;
5819;SDS011;2936;47.348;9.640;2022-07-22T04:28:39;20.80;;;18.63;;
5819;SDS011;2936;47.348;9.640;2022-07-22T04:31:07;26.50;;;17.33;;
5819;SDS011;2936;47.348;9.640;2022-07-22T04:33:35;20.70;;;18.00;;
5819;SDS011;2936;47.348;9.640;2022-07-22T04:36:02;22.90;;;18.33;;
5819;SDS011;2936;47.348;9.640;2022-07-22T04:38:30;23.00;;;17.00;;
5819;SDS011;2936;47.348;9.640;2022-07-22T04:40:58;21.97;;;17.63;;
5819;SDS011;2936;47.348;9.640;2022-07-22T04:43:25;18.27;;;16.23;;
5819;SDS011;2936;47.348;9.640;2022-07-22T04:45:52;20.60;;;15.67;;
5819;SDS011;2936;47.348;9.640;2022-07-22T04:48:21;19.43;;;17.10;;
5819;SDS011;2936;47.348;9.640;2022-07-22T04:50:49;20.20;;;16.70;;
5819;SDS011;2936;47.348;9.640;2022-07-22T04:53:16;24.07;;;16.13;;
5819;SDS011;2936;47.348;9.640;2022-07-22T04:55:43;19.90;;;17.00;;
5819;SDS011;2936;47.348;9.640;2022-07-22T04:58:11;23.20;;;18.00;;
5819;SDS011;2936;47.348;9.640;2022-07-22T05:00:38;24.13;;;18.33;;
5819;SDS011;2936;47.348;9.640;2022-07-22T05:03:06;22.43;;;17.00;;
5819;SDS011;2936;47.348;9.640;2022-07-22T05:05:34;26.37;;;17.47;;
5819;SDS011;2936;47.348;9.640;2022-07-22T05:08:02;19.73;;;17.10;;
5819;SDS011;2936;47.348;9.640;2022-07-22T05:10:29;21.57;;;16.90;;
5819;SDS011;2936;47.348;9.640;2022-07-22T05:12:57;19.77;;;15.80;;
5819;SDS011;2936;47.348;9.640;2022-07-22T05:15:25;21.80;;;16.83;;
5819;SDS011;2936;47.348;9.640;2022-07-22T05:17:52;20.90;;;16.70;;
5819;SDS011;2936;47.348;9.640;2022-07-22T05:20:20;19.33;;;16.90;;
5819;SDS011;2936;47.348;9.640;2022-07-22T05:22:49;19.93;;;17.60;;
5819;SDS011;2936;47.348;9.640;2022-07-22T05:25:16;20.10;;;15.93;;
5819;SDS011;2936;47.348;9.640;2022-07-22T05:27:49;24.60;;;16.30;;
5819;SDS011;2936;47.348;9.640;2022-07-22T05:30:16;30.27;;;19.67;;
5819;SDS011;2936;47.348;9.640;2022-07-22T05:32:43;21.37;;;17.30;;
5819;SDS011;2936;47.348;9.640;2022-07-22T05:35:11;21.90;;;17.50;;
5819;SDS011;2936;47.348;9.640;2022-07-22T05:37:38;28.37;;;18.37;;
5819;SDS011;2936;47.348;9.640;2022-07-22T05:40:08;26.20;;;18.10;;
5819;SDS011;2936;47.348;9.640;2022-07-22T05:42:35;19.77;;;17.67;;
5819;SDS011;2936;47.348;9.640;2022-07-22T05:45:03;22.80;;;18.73;;
5819;SDS011;2936;47.348;9.640;2022-07-22T05:47:30;29.80;;;19.37;;
5819;SDS011;2936;47.348;9.640;2022-07-22T05:49:58;25.10;;;18.27;;
5819;SDS011;2936;47.348;9.640;2022-07-22T05:52:25;24.00;;;17.30;;
5819;SDS011;2936;47.348;9.640;2022-07-22T05:54:53;21.90;;;17.67;;
5819;SDS011;2936;47.348;9.640;2022-07-22T05:57:21;24.87;;;19.80;;
5819;SDS011;2936;47.348;9.640;2022-07-22T05:59:49;22.80;;;17.63;;
5819;SDS011;2936;47.348;9.640;2022-07-22T06:02:16;24.93;;;17.60;;
5819;SDS011;2936;47.348;9.640;2022-07-22T06:04:44;19.63;;;17.10;;
5819;SDS011;2936;47.348;9.640;2022-07-22T06:07:11;21.53;;;17.00;;
5819;SDS011;2936;47.348;9.640;2022-07-22T06:09:38;21.50;;;17.00;;
5819;SDS011;2936;47.348;9.640;2022-07-22T06:12:06;21.20;;;16.10;;
5819;SDS011;2936;47.348;9.640;2022-07-22T06:14:35;19.77;;;16.17;;
5819;SDS011;2936;47.348;9.640;2022-07-22T06:17:02;20.43;;;16.47;;
5819;SDS011;2936;47.348;9.640;2022-07-22T06:19:30;20.63;;;17.10;;
5819;SDS011;2936;47.348;9.640;2022-07-22T06:21:58;21.87;;;16.60;;
5819;SDS011;2936;47.348;9.640;2022-07-22T06:24:25;22.10;;;16.23;;
5819;SDS011;2936;47.348;9.640;2022-07-22T06:26:53;21.30;;;16.30;;
5819;SDS011;2936;47.348;9.640;2022-07-22T06:29:20;21.03;;;16.63;;
5819;SDS011;2936;47.348;9.640;2022-07-22T06:31:49;15.90;;;14.30;;
5819;SDS011;2936;47.348;9.640;2022-07-22T06:34:16;19.63;;;16.80;;
5819;SDS011;2936;47.348;9.640;2022-07-22T06:36:44;21.00;;;16.53;;
5819;SDS011;2936;47.348;9.640;2022-07-22T06:39:11;25.23;;;18.03;;
5819;SDS011;2936;47.348;9.640;2022-07-22T06:41:39;23.50;;;15.93;;
5819;SDS011;2936;47.348;9.640;2022-07-22T06:44:06;18.87;;;16.37;;
5819;SDS011;2936;47.348;9.640;2022-07-22T06:46:33;19.07;;;17.10;;
5819;SDS011;2936;47.348;9.640;2022-07-22T06:49:02;22.10;;;17.10;;
5819;SDS011;2936;47.348;9.640;2022-07-22T06:51:29;18.90;;;16.70;;
5819;SDS011;2936;47.348;9.640;2022-07-22T06:53:57;21.67;;;18.10;;
5819;SDS011;2936;47.348;9.640;2022-07-22T06:56:24;19.13;;;17.07;;
5819;SDS011;2936;47.348;9.640;2022-07-22T06:58:52;20.40;;;18.20;;
5819;SDS011;2936;47.348;9.640;2022-07-22T07:01:19;25.93;;;18.67;;
5819;SDS011;2936;47.348;9.640;2022-07-22T07:03:47;22.70;;;18.50;;
5819;SDS011;2936;47.348;9.640;2022-07-22T07:06:16;21.23;;;17.90;;
5819;SDS011;2936;47.348;9.640;2022-07-22T07:08:43;26.23;;;17.93;;
5819;SDS011;2936;47.348;9.640;2022-07-22T07:11:10;24.13;;;17.70;;
5819;SDS011;2936;47.348;9.640;2022-07-22T07:13:38;29.00;;;18.87;;
5819;SDS011;2936;47.348;9.640;2022-07-22T07:16:05;22.33;;;17.63;;
5819;SDS011;2936;47.348;9.640;2022-07-22T07:18:33;26.63;;;18.57;;
5819;SDS011;2936;47.348;9.640;2022-07-22T07:21:00;25.03;;;18.27;;
5819;SDS011;2936;47.348;9.640;2022-07-22T07:23:29;20.00;;;17.90;;
5819;SDS011;2936;47.348;9.640;2022-07-22T07:25:56;29.17;;;18.93;;
5819;SDS011;2936;47.348;9.640;2022-07-22T07:28:24;26.00;;;18.87;;
5819;SDS011;2936;47.348;9.640;2022-07-22T07:30:51;19.97;;;17.20;;
5819;SDS011;2936;47.348;9.640;2022-07-22T07:33:19;30.60;;;19.10;;
5819;SDS011;2936;47.348;9.640;2022-07-22T07:35:46;23.60;;;19.07;;
5819;SDS011;2936;47.348;9.640;2022-07-22T07:38:13;24.03;;;17.93;;
5819;SDS011;2936;47.348;9.640;2022-07-22T07:40:42;24.00;;;18.03;;
5819;SDS011;2936;47.348;9.640;2022-07-22T07:43:10;24.33;;;19.13;;
5819;SDS011;2936;47.348;9.640;2022-07-22T07:45:37;19.60;;;17.23;;
5819;SDS011;2936;47.348;9.640;2022-07-22T07:48:05;18.77;;;16.80;;
5819;SDS011;2936;47.348;9.640;2022-07-22T07:50:32;21.73;;;16.80;;
5819;SDS011;2936;47.348;9.640;2022-07-22T07:53:00;21.13;;;18.23;;
5819;SDS011;2936;47.348;9.640;2022-07-22T07:55:27;20.50;;;17.07;;
5819;SDS011;2936;47.348;9.640;2022-07-22T07:57:56;21.87;;;16.50;;
5819;SDS011;2936;47.348;9.640;2022-07-22T08:00:24;21.90;;;16.23;;
5819;SDS011;2936;47.348;9.640;2022-07-22T08:02:54;24.73;;;17.80;;
5819;SDS011;2936;47.348;9.640;2022-07-22T08:05:21;22.07;;;17.60;;
5819;SDS011;2936;47.348;9.640;2022-07-22T08:07:49;24.33;;;19.93;;
5819;SDS011;2936;47.348;9.640;2022-07-22T08:10:17;23.93;;;18.23;;
5819;SDS011;2936;47.348;9.640;2022-07-22T08:12:44;23.20;;;19.17;;
5819;SDS011;2936;47.348;9.640;2022-07-22T08:15:13;26.13;;;18.23;;
5819;SDS011;2936;47.348;9.640;2022-07-22T08:17:42;28.43;;;19.20;;
5819;SDS011;2936;47.348;9.640;2022-07-22T08:20:09;22.70;;;17.97;;
5819;SDS011;2936;47.348;9.640;2022-07-22T08:22:37;22.95;;;18.30;;
5819;SDS011;2936;47.348;9.640;2022-07-22T08:25:05;26.83;;;17.90;;
5819;SDS011;2936;47.348;9.640;2022-07-22T08:27:33;21.07;;;18.87;;
5819;SDS011;2936;47.348;9.640;2022-07-22T08:30:01;21.20;;;17.00;;
5819;SDS011;2936;47.348;9.640;2022-07-22T08:32:32;19.17;;;17.17;;
5819;SDS011;2936;47.348;9.640;2022-07-22T08:34:59;21.43;;;17.23;;
5819;SDS011;2936;47.348;9.640;2022-07-22T08:37:27;20.87;;;18.03;;
5819;SDS011;2936;47.348;9.640;2022-07-22T08:39:55;25.00;;;16.50;;
5819;SDS011;2936;47.348;9.640;2022-07-22T08:42:23;19.47;;;16.90;;
5819;SDS011;2936;47.348;9.640;2022-07-22T08:44:52;22.70;;;18.13;;
5819;SDS011;2936;47.348;9.640;2022-07-22T08:47:20;21.20;;;16.87;;
5819;SDS011;2936;47.348;9.640;2022-07-22T08:49:49;17.70;;;15.20;;
5819;SDS011;2936;47.348;9.640;2022-07-22T08:52:17;18.43;;;16.53;;
5819;SDS011;2936;47.348;9.640;2022-07-22T08:54:44;19.03;;;16.30;;
5819;SDS011;2936;47.348;9.640;2022-07-22T08:57:11;17.03;;;15.23;;
5819;SDS011;2936;47.348;9.640;2022-07-22T08:59:48;17.90;;;16.00;;
5819;SDS011;2936;47.348;9.640;2022-07-22T09:02:16;18.70;;;16.60;;
5819;SDS011;2936;47.348;9.640;2022-07-22T09:04:53;18.57;;;16.70;;
5819;SDS011;2936;47.348;9.640;2022-07-22T09:07:24;21.87;;;17.83;;
5819;SDS011;2936;47.348;9.640;2022-07-22T09:09:52;17.80;;;15.90;;
5819;SDS011;2936;47.348;9.640;2022-07-22T09:12:19;18.83;;;16.90;;
5819;SDS011;2936;47.348;9.640;2022-07-22T09:14:48;24.40;;;16.77;;
5819;SDS011;2936;47.348;9.640;2022-07-22T09:17:23;21.43;;;16.30;;
5819;SDS011;2936;47.348;9.640;2022-07-22T09:19:50;24.53;;;15.20;;
5819;SDS011;2936;47.348;9.640;2022-07-22T09:22:31;17.60;;;14.03;;
5819;SDS011;2936;47.348;9.640;2022-07-22T09:24:58;16.13;;;13.97;;
5819;SDS011;2936;47.348;9.640;2022-07-22T09:27:26;17.27;;;15.47;;
5819;SDS011;2936;47.348;9.640;2022-07-22T09:29:54;16.23;;;14.53;;
5819;SDS011;2936;47.348;9.640;2022-07-22T09:32:22;15.73;;;14.13;;
5819;SDS011;2936;47.348;9.640;2022-07-22T09:34:49;17.83;;;15.40;;
5819;SDS011;2936;47.348;9.640;2022-07-22T09:37:17;19.37;;;15.27;;
5819;SDS011;2936;47.348;9.640;2022-07-22T09:39:45;16.13;;;14.50;;
5819;SDS011;2936;47.348;9.640;2022-07-22T09:42:13;17.03;;;15.30;;
5819;SDS011;2936;47.348;9.640;2022-07-22T09:44:41;14.93;;;13.50;;
5819;SDS011;2936;47.348;9.640;2022-07-22T09:47:15;17.13;;;13.10;;
5819;SDS011;2936;47.348;9.640;2022-07-22T09:49:53;17.47;;;13.53;;
5819;SDS011;2936;47.348;9.640;2022-07-22T09:52:21;17.20;;;14.60;;
5819;SDS011;2936;47.348;9.640;2022-07-22T09:54:50;15.13;;;13.63;;
5819;SDS011;2936;47.348;9.640;2022-07-22T09:57:17;19.33;;;14.20;;
5819;SDS011;2936;47.348;9.640;2022-07-22T09:59:45;18.33;;;15.27;;
5819;SDS011;2936;47.348;9.640;2022-07-22T10:02:12;19.10;;;15.73;;
5819;SDS011;2936;47.348;9.640;2022-07-22T10:04:40;17.70;;;15.90;;
5819;SDS011;2936;47.348;9.640;2022-07-22T10:07:08;16.90;;;14.67;;
5819;SDS011;2936;47.348;9.640;2022-07-22T10:09:36;16.70;;;15.00;;
5819;SDS011;2936;47.348;9.640;2022-07-22T10:12:06;15.27;;;13.70;;
5819;SDS011;2936;47.348;9.640;2022-07-22T10:14:34;17.57;;;14.77;;
5819;SDS011;2936;47.348;9.640;2022-07-22T10:17:02;15.63;;;14.03;;
5819;SDS011;2936;47.348;9.640;2022-07-22T10:19:30;17.90;;;14.90;;
5819;SDS011;2936;47.348;9.640;2022-07-22T10:21:57;16.27;;;14.30;;
5819;SDS011;2936;47.348;9.640;2022-07-22T10:24:25;18.33;;;14.67;;
5819;SDS011;2936;47.348;9.640;2022-07-22T10:26:53;14.33;;;12.97;;
5819;SDS011;2936;47.348;9.640;2022-07-22T10:29:29;18.83;;;15.03;;
5819;SDS011;2936;47.348;9.640;2022-07-22T10:37:42;18.90;;;15.47;;
5819;SDS011;2936;47.348;9.640;2022-07-22T10:40:10;18.97;;;14.73;;
5819;SDS011;2936;47.348;9.640;2022-07-22T10:45:26;15.50;;;14.00;;
5819;SDS011;2936;47.348;9.640;2022-07-22T10:47:54;18.17;;;14.27;;
5819;SDS011;2936;47.348;9.640;2022-07-22T10:50:44;15.50;;;13.90;;
5819;SDS011;2936;47.348;9.640;2022-07-22T10:53:12;16.90;;;14.10;;
5819;SDS011;2936;47.348;9.640;2022-07-22T11:01:10;16.87;;;13.40;;
5819;SDS011;2936;47.348;9.640;2022-07-22T11:03:38;21.70;;;13.17;;
5819;SDS011;2936;47.348;9.640;2022-07-22T11:06:13;17.20;;;12.70;;
5819;SDS011;2936;47.348;9.640;2022-07-22T11:08:41;15.40;;;13.23;;
5819;SDS011;2936;47.348;9.640;2022-07-22T11:11:09;14.40;;;13.00;;
5819;SDS011;2936;47.348;9.640;2022-07-22T11:13:37;15.83;;;12.60;;
5819;SDS011;2936;47.348;9.640;2022-07-22T11:16:16;13.73;;;12.30;;
5819;SDS011;2936;47.348;9.640;2022-07-22T11:18:44;12.50;;;11.40;;
5819;SDS011;2936;47.348;9.640;2022-07-22T11:21:13;14.77;;;13.20;;
5819;SDS011;2936;47.348;9.640;2022-07-22T11:23:40;15.20;;;13.00;;
5819;SDS011;2936;47.348;9.640;2022-07-22T11:26:08;14.53;;;13.10;;
5819;SDS011;2936;47.348;9.640;2022-07-22T11:28:38;12.83;;;11.30;;
5819;SDS011;2936;47.348;9.640;2022-07-22T11:31:06;15.07;;;12.43;;
5819;SDS011;2936;47.348;9.640;2022-07-22T11:33:35;13.77;;;12.43;;
5819;SDS011;2936;47.348;9.640;2022-07-22T11:36:03;14.80;;;13.27;;
5819;SDS011;2936;47.348;9.640;2022-07-22T11:38:44;13.87;;;12.57;;
5819;SDS011;2936;47.348;9.640;2022-07-22T11:41:12;16.27;;;12.90;;
5819;SDS011;2936;47.348;9.640;2022-07-22T11:43:40;13.00;;;11.80;;
5819;SDS011;2936;47.348;9.640;2022-07-22T11:46:07;13.30;;;12.10;;
5819;SDS011;2936;47.348;9.640;2022-07-22T11:48:36;13.83;;;12.43;;
5819;SDS011;2936;47.348;9.640;2022-07-22T11:51:04;14.40;;;12.90;;
5819;SDS011;2936;47.348;9.640;2022-07-22T11:53:32;14.33;;;12.87;;
5819;SDS011;2936;47.348;9.640;2022-07-22T11:56:00;14.57;;;12.57;;
5819;SDS011;2936;47.348;9.640;2022-07-22T11:58:34;17.90;;;13.40;;
5819;SDS011;2936;47.348;9.640;2022-07-22T12:01:01;14.70;;;13.20;;
5819;SDS011;2936;47.348;9.640;2022-07-22T12:03:31;15.50;;;13.90;;
5819;SDS011;2936;47.348;9.640;2022-07-22T12:06:00;13.57;;;12.30;;
5819;SDS011;2936;47.348;9.640;2022-07-22T12:08:28;15.93;;;13.17;;
5819;SDS011;2936;47.348;9.640;2022-07-22T12:10:56;14.70;;;12.60;;
5819;SDS011;2936;47.348;9.640;2022-07-22T12:13:27;13.27;;;11.97;;
5819;SDS011;2936;47.348;9.640;2022-07-22T12:15:55;16.20;;;11.90;;
5819;SDS011;2936;47.348;9.640;2022-07-22T12:18:24;12.70;;;11.60;;
5819;SDS011;2936;47.348;9.640;2022-07-22T12:20:52;12.30;;;11.20;;
5819;SDS011;2936;47.348;9.640;2022-07-22T12:23:21;13.43;;;12.13;;
5819;SDS011;2936;47.348;9.640;2022-07-22T12:25:52;12.37;;;11.20;;
5819;SDS011;2936;47.348;9.640;2022-07-22T12:28:20;13.60;;;12.27;;
5819;SDS011;2936;47.348;9.640;2022-07-22T12:30:47;14.73;;;11.47;;
5819;SDS011;2936;47.348;9.640;2022-07-22T12:33:15;12.50;;;11.40;;
5819;SDS011;2936;47.348;9.640;2022-07-22T12:35:44;14.63;;;11.60;;
5819;SDS011;2936;47.348;9.640;2022-07-22T12:38:11;11.60;;;10.63;;
5819;SDS011;2936;47.348;9.640;2022-07-22T12:40:40;12.50;;;11.30;;
5819;SDS011;2936;47.348;9.640;2022-07-22T12:43:08;14.13;;;11.10;;
5819;SDS011;2936;47.348;9.640;2022-07-22T12:45:36;13.30;;;11.80;;
5819;SDS011;2936;47.348;9.640;2022-07-22T12:48:07;13.10;;;11.80;;
5819;SDS011;2936;47.348;9.640;2022-07-22T12:50:35;13.13;;;11.63;;
5819;SDS011;2936;47.348;9.640;2022-07-22T12:53:03;13.70;;;11.73;;
5819;SDS011;2936;47.348;9.640;2022-07-22T12:55:31;11.97;;;10.67;;
5819;SDS011;2936;47.348;9.640;2022-07-22T12:58:00;13.23;;;11.93;;
5819;SDS011;2936;47.348;9.640;2022-07-22T13:00:28;15.63;;;10.83;;
5819;SDS011;2936;47.348;9.640;2022-07-22T13:02:55;12.70;;;11.40;;
5819;SDS011;2936;47.348;9.640;2022-07-22T13:05:23;12.70;;;11.40;;
5819;SDS011;2936;47.348;9.640;2022-07-22T13:07:51;14.40;;;11.73;;
5819;SDS011;2936;47.348;9.640;2022-07-22T13:10:19;12.67;;;11.53;;
5819;SDS011;2936;47.348;9.640;2022-07-22T13:12:47;13.63;;;11.00;;
5819;SDS011;2936;47.348;9.640;2022-07-22T13:15:17;13.20;;;11.90;;
5819;SDS011;2936;47.348;9.640;2022-07-22T13:17:45;14.73;;;11.50;;
5819;SDS011;2936;47.348;9.640;2022-07-22T13:20:12;12.50;;;11.20;;
5819;SDS011;2936;47.348;9.640;2022-07-22T13:22:41;11.93;;;10.83;;
5819;SDS011;2936;47.348;9.640;2022-07-22T13:25:09;14.80;;;11.47;;
5819;SDS011;2936;47.348;9.640;2022-07-22T13:27:36;13.30;;;11.60;;
5819;SDS011;2936;47.348;9.640;2022-07-22T13:30:04;12.40;;;11.10;;
5819;SDS011;2936;47.348;9.640;2022-07-22T13:32:33;11.27;;;10.23;;
5819;SDS011;2936;47.348;9.640;2022-07-22T13:35:01;10.93;;;9.70;;
5819;SDS011;2936;47.348;9.640;2022-07-22T13:37:28;11.90;;;10.80;;
5819;SDS011;2936;47.348;9.640;2022-07-22T13:39:56;12.13;;;11.03;;
5819;SDS011;2936;47.348;9.640;2022-07-22T13:42:23;11.67;;;10.47;;
5819;SDS011;2936;47.348;9.640;2022-07-22T13:44:50;13.50;;;10.27;;
5819;SDS011;2936;47.348;9.640;2022-07-22T13:47:19;12.10;;;11.00;;
5819;SDS011;2936;47.348;9.640;2022-07-22T13:49:49;12.20;;;11.00;;
5819;SDS011;2936;47.348;9.640;2022-07-22T13:52:16;12.47;;;10.20;;
5819;SDS011;2936;47.348;9.640;2022-07-22T13:54:44;16.40;;;10.77;;
5819;SDS011;2936;47.348;9.640;2022-07-22T13:57:11;11.70;;;10.67;;
5819;SDS011;2936;47.348;9.640;2022-07-22T13:59:38;14.80;;;10.83;;
5819;SDS011;2936;47.348;9.640;2022-07-22T14:02:06;12.10;;;10.20;;
5819;SDS011;2936;47.348;9.640;2022-07-22T14:04:34;11.17;;;10.07;;
5819;SDS011;2936;47.348;9.640;2022-07-22T14:07:03;14.53;;;10.83;;
5819;SDS011;2936;47.348;9.640;2022-07-22T14:09:30;12.33;;;10.53;;
5819;SDS011;2936;47.348;9.640;2022-07-22T14:11:57;11.77;;;10.57;;
5819;SDS011;2936;47.348;9.640;2022-07-22T14:14:26;13.13;;;10.20;;
5819;SDS011;2936;47.348;9.640;2022-07-22T14:16:53;11.80;;;10.63;;
5819;SDS011;2936;47.348;9.640;2022-07-22T14:19:21;10.80;;;9.47;;
5819;SDS011;2936;47.348;9.640;2022-07-22T14:21:48;12.47;;;10.20;;
5819;SDS011;2936;47.348;9.640;2022-07-22T14:24:17;11.60;;;10.50;;
5819;SDS011;2936;47.348;9.640;2022-07-22T14:26:45;12.00;;;9.50;;
5819;SDS011;2936;47.348;9.640;2022-07-22T14:29:12;9.97;;;8.97;;
5819;SDS011;2936;47.348;9.640;2022-07-22T14:31:40;9.40;;;8.50;;
5819;SDS011;2936;47.348;9.640;2022-07-22T14:34:07;9.00;;;8.30;;
5819;SDS011;2936;47.348;9.640;2022-07-22T14:36:35;9.63;;;8.73;;
5819;SDS011;2936;47.348;9.640;2022-07-22T14:39:02;7.93;;;7.20;;
5819;SDS011;2936;47.348;9.640;2022-07-22T14:41:31;7.77;;;7.17;;
5819;SDS011;2936;47.348;9.640;2022-07-22T14:43:58;7.83;;;7.23;;
5819;SDS011;2936;47.348;9.640;2022-07-22T14:46:26;6.60;;;6.10;;
5819;SDS011;2936;47.348;9.640;2022-07-22T14:48:53;6.97;;;6.30;;
5819;SDS011;2936;47.348;9.640;2022-07-22T14:51:20;7.30;;;6.60;;
5819;SDS011;2936;47.348;9.640;2022-07-22T14:53:48;7.13;;;6.53;;
5819;SDS011;2936;47.348;9.640;2022-07-22T14:56:16;7.33;;;6.73;;
5819;SDS011;2936;47.348;9.640;2022-07-22T14:58:45;9.07;;;7.00;;
5819;SDS011;2936;47.348;9.640;2022-07-22T15:01:12;6.90;;;6.30;;
5819;SDS011;2936;47.348;9.640;2022-07-22T15:03:40;6.67;;;6.17;;
5819;SDS011;2936;47.348;9.640;2022-07-22T15:06:07;7.73;;;7.03;;